sensor_id;sensor_type;location;lat;lon;timestamp;P1;durP1;ratioP1;P2;durP2;ratioP2
29940;SDS011;16801;53.562;10.038;2023-11-19T00:01:14;4.00;;;3.70;;
29940;SDS011;16801;53.562;10.038;2023-11-19T00:04:36;5.40;;;4.90;;
29940;SDS011;16801;53.562;10.038;2023-11-19T00:07:58;5.60;;;5.13;;
29940;SDS011;16801;53.562;10.038;2023-11-19T00:11:21;5.00;;;3.97;;
29940;SDS011;16801;53.562;10.038;2023-11-19T00:14:42;3.83;;;3.53;;
29940;SDS011;16801;53.562;10.038;2023-11-19T00:18:03;4.17;;;3.77;;
29940;SDS011;16801;53.562;10.038;2023-11-19T00:21:24;4.03;;;3.73;;
29940;SDS011;16801;53.562;10.038;2023-11-19T00:24:48;3.93;;;3.53;;
29940;SDS011;16801;53.562;10.038;2023-11-19T00:28:10;3.20;;;2.90;;
29940;SDS011;16801;53.562;10.038;2023-11-19T00:31:33;3.07;;;2.73;;
29940;SDS011;16801;53.562;10.038;2023-11-19T00:34:54;2.97;;;2.77;;
29940;SDS011;16801;53.562;10.038;2023-11-19T00:38:15;2.73;;;2.53;;
29940;SDS011;16801;53.562;10.038;2023-11-19T00:41:36;4.47;;;3.30;;
29940;SDS011;16801;53.562;10.038;2023-11-19T00:44:58;3.13;;;2.83;;
29940;SDS011;16801;53.562;10.038;2023-11-19T00:48:20;2.90;;;2.70;;
29940;SDS011;16801;53.562;10.038;2023-11-19T00:51:41;3.60;;;3.30;;
29940;SDS011;16801;53.562;10.038;2023-11-19T00:55:02;3.93;;;2.80;;
29940;SDS011;16801;53.562;10.038;2023-11-19T00:58:23;2.13;;;1.93;;
29940;SDS011;16801;53.562;10.038;2023-11-19T01:01:46;2.47;;;2.27;;
29940;SDS011;16801;53.562;10.038;2023-11-19T01:05:08;2.60;;;2.20;;
29940;SDS011;16801;53.562;10.038;2023-11-19T01:08:29;3.07;;;2.87;;
29940;SDS011;16801;53.562;10.038;2023-11-19T01:11:50;3.03;;;2.83;;
29940;SDS011;16801;53.562;10.038;2023-11-19T01:15:11;2.00;;;1.87;;
29940;SDS011;16801;53.562;10.038;2023-11-19T01:18:34;2.93;;;2.63;;
29940;SDS011;16801;53.562;10.038;2023-11-19T01:21:56;2.03;;;1.93;;
29940;SDS011;16801;53.562;10.038;2023-11-19T01:25:17;2.00;;;1.90;;
29940;SDS011;16801;53.562;10.038;2023-11-19T01:28:37;1.50;;;1.40;;
29940;SDS011;16801;53.562;10.038;2023-11-19T01:32:02;1.80;;;1.70;;
29940;SDS011;16801;53.562;10.038;2023-11-19T01:35:27;2.03;;;1.90;;
29940;SDS011;16801;53.562;10.038;2023-11-19T01:38:48;1.83;;;1.73;;
29940;SDS011;16801;53.562;10.038;2023-11-19T01:42:09;2.00;;;1.90;;
29940;SDS011;16801;53.562;10.038;2023-11-19T01:45:31;1.60;;;1.50;;
29940;SDS011;16801;53.562;10.038;2023-11-19T01:48:54;2.30;;;2.13;;
29940;SDS011;16801;53.562;10.038;2023-11-19T01:52:19;2.00;;;1.80;;
29940;SDS011;16801;53.562;10.038;2023-11-19T01:55:40;1.40;;;1.30;;
29940;SDS011;16801;53.562;10.038;2023-11-19T01:59:01;1.03;;;1.00;;
29940;SDS011;16801;53.562;10.038;2023-11-19T02:02:23;0.90;;;0.90;;
29940;SDS011;16801;53.562;10.038;2023-11-19T02:05:45;1.60;;;1.50;;
29940;SDS011;16801;53.562;10.038;2023-11-19T02:09:09;1.93;;;1.63;;
29940;SDS011;16801;53.562;10.038;2023-11-19T02:12:30;1.73;;;1.63;;
29940;SDS011;16801;53.562;10.038;2023-11-19T02:15:53;1.60;;;1.50;;
29940;SDS011;16801;53.562;10.038;2023-11-19T02:19:14;1.30;;;1.20;;
29940;SDS011;16801;53.562;10.038;2023-11-19T02:22:35;1.23;;;1.13;;
29940;SDS011;16801;53.562;10.038;2023-11-19T02:26:01;1.53;;;1.43;;
29940;SDS011;16801;53.562;10.038;2023-11-19T02:29:26;1.50;;;1.40;;
29940;SDS011;16801;53.562;10.038;2023-11-19T02:32:47;1.20;;;1.10;;
29940;SDS011;16801;53.562;10.038;2023-11-19T02:36:09;0.87;;;0.87;;
29940;SDS011;16801;53.562;10.038;2023-11-19T02:39:30;0.80;;;0.80;;
29940;SDS011;16801;53.562;10.038;2023-11-19T02:42:51;1.63;;;1.20;;
29940;SDS011;16801;53.562;10.038;2023-11-19T02:46:13;1.30;;;1.23;;
29940;SDS011;16801;53.562;10.038;2023-11-19T02:49:36;1.17;;;1.17;;
29940;SDS011;16801;53.562;10.038;2023-11-19T02:52:57;1.60;;;1.33;;
29940;SDS011;16801;53.562;10.038;2023-11-19T02:56:18;0.93;;;0.93;;
29940;SDS011;16801;53.562;10.038;2023-11-19T02:59:45;2.20;;;2.10;;
29940;SDS011;16801;53.562;10.038;2023-11-19T03:03:07;1.30;;;1.20;;
29940;SDS011;16801;53.562;10.038;2023-11-19T03:06:39;0.90;;;0.90;;
29940;SDS011;16801;53.562;10.038;2023-11-19T03:09:59;0.83;;;0.83;;
29940;SDS011;16801;53.562;10.038;2023-11-19T03:13:20;0.90;;;0.90;;
29940;SDS011;16801;53.562;10.038;2023-11-19T03:16:41;1.13;;;0.90;;
29940;SDS011;16801;53.562;10.038;2023-11-19T03:20:07;1.00;;;1.00;;
29940;SDS011;16801;53.562;10.038;2023-11-19T03:23:35;0.87;;;0.70;;
29940;SDS011;16801;53.562;10.038;2023-11-19T03:26:57;1.77;;;1.37;;
29940;SDS011;16801;53.562;10.038;2023-11-19T03:30:18;0.90;;;0.90;;
29940;SDS011;16801;53.562;10.038;2023-11-19T03:33:40;0.80;;;0.77;;
29940;SDS011;16801;53.562;10.038;2023-11-19T03:37:02;1.27;;;1.17;;
29940;SDS011;16801;53.562;10.038;2023-11-19T03:40:23;1.40;;;1.30;;
29940;SDS011;16801;53.562;10.038;2023-11-19T03:43:44;1.20;;;1.10;;
29940;SDS011;16801;53.562;10.038;2023-11-19T03:47:05;1.27;;;1.00;;
29940;SDS011;16801;53.562;10.038;2023-11-19T03:50:26;0.90;;;0.90;;
29940;SDS011;16801;53.562;10.038;2023-11-19T03:53:49;1.80;;;0.90;;
29940;SDS011;16801;53.562;10.038;2023-11-19T03:57:10;1.00;;;1.00;;
29940;SDS011;16801;53.562;10.038;2023-11-19T04:00:31;1.77;;;1.67;;
29940;SDS011;16801;53.562;10.038;2023-11-19T04:03:52;1.20;;;1.20;;
29940;SDS011;16801;53.562;10.038;2023-11-19T04:07:15;1.67;;;1.13;;
29940;SDS011;16801;53.562;10.038;2023-11-19T04:10:37;1.23;;;1.13;;
29940;SDS011;16801;53.562;10.038;2023-11-19T04:13:58;2.57;;;2.10;;
29940;SDS011;16801;53.562;10.038;2023-11-19T04:17:19;1.50;;;1.40;;
29940;SDS011;16801;53.562;10.038;2023-11-19T04:20:41;1.80;;;1.70;;
29940;SDS011;16801;53.562;10.038;2023-11-19T04:24:03;1.37;;;1.27;;
29940;SDS011;16801;53.562;10.038;2023-11-19T04:27:26;1.80;;;1.70;;
29940;SDS011;16801;53.562;10.038;2023-11-19T04:30:47;1.63;;;1.53;;
29940;SDS011;16801;53.562;10.038;2023-11-19T04:34:08;2.27;;;2.07;;
29940;SDS011;16801;53.562;10.038;2023-11-19T04:37:29;4.50;;;1.90;;
29940;SDS011;16801;53.562;10.038;2023-11-19T04:40:49;2.57;;;1.63;;
29940;SDS011;16801;53.562;10.038;2023-11-19T04:44:12;1.90;;;1.80;;
29940;SDS011;16801;53.562;10.038;2023-11-19T04:47:32;2.83;;;2.70;;
29940;SDS011;16801;53.562;10.038;2023-11-19T04:50:53;1.70;;;1.60;;
29940;SDS011;16801;53.562;10.038;2023-11-19T04:54:14;1.47;;;1.47;;
29940;SDS011;16801;53.562;10.038;2023-11-19T04:57:36;3.30;;;2.40;;
29940;SDS011;16801;53.562;10.038;2023-11-19T05:00:58;3.47;;;2.17;;
29940;SDS011;16801;53.562;10.038;2023-11-19T05:04:19;2.03;;;1.93;;
29940;SDS011;16801;53.562;10.038;2023-11-19T05:07:40;2.63;;;2.50;;
29940;SDS011;16801;53.562;10.038;2023-11-19T05:11:00;2.03;;;1.90;;
29940;SDS011;16801;53.562;10.038;2023-11-19T05:14:21;3.43;;;2.60;;
29940;SDS011;16801;53.562;10.038;2023-11-19T05:17:45;2.53;;;2.33;;
29940;SDS011;16801;53.562;10.038;2023-11-19T05:21:06;4.47;;;3.27;;
29940;SDS011;16801;53.562;10.038;2023-11-19T05:24:27;2.97;;;2.73;;
29940;SDS011;16801;53.562;10.038;2023-11-19T05:27:48;3.47;;;2.87;;
29940;SDS011;16801;53.562;10.038;2023-11-19T05:31:09;3.40;;;3.20;;
29940;SDS011;16801;53.562;10.038;2023-11-19T05:34:31;4.00;;;3.60;;
29940;SDS011;16801;53.562;10.038;2023-11-19T05:37:52;3.10;;;2.90;;
29940;SDS011;16801;53.562;10.038;2023-11-19T05:41:13;3.60;;;3.20;;
29940;SDS011;16801;53.562;10.038;2023-11-19T05:44:34;3.10;;;2.80;;
29940;SDS011;16801;53.562;10.038;2023-11-19T05:47:56;2.90;;;2.70;;
29940;SDS011;16801;53.562;10.038;2023-11-19T05:51:18;3.67;;;3.37;;
29940;SDS011;16801;53.562;10.038;2023-11-19T05:54:39;4.33;;;3.70;;
29940;SDS011;16801;53.562;10.038;2023-11-19T05:58:01;4.57;;;4.17;;
29940;SDS011;16801;53.562;10.038;2023-11-19T06:01:23;5.90;;;5.40;;
29940;SDS011;16801;53.562;10.038;2023-11-19T06:04:44;8.47;;;5.70;;
29940;SDS011;16801;53.562;10.038;2023-11-19T06:08:08;9.70;;;8.00;;
29940;SDS011;16801;53.562;10.038;2023-11-19T06:11:29;10.63;;;7.33;;
29940;SDS011;16801;53.562;10.038;2023-11-19T06:14:50;11.87;;;10.27;;
29940;SDS011;16801;53.562;10.038;2023-11-19T06:18:11;14.93;;;10.40;;
29940;SDS011;16801;53.562;10.038;2023-11-19T06:21:31;17.40;;;8.03;;
29940;SDS011;16801;53.562;10.038;2023-11-19T06:24:54;15.13;;;9.57;;
29940;SDS011;16801;53.562;10.038;2023-11-19T06:28:15;18.00;;;9.60;;
29940;SDS011;16801;53.562;10.038;2023-11-19T06:31:36;12.40;;;8.97;;
29940;SDS011;16801;53.562;10.038;2023-11-19T06:34:56;16.67;;;8.93;;
29940;SDS011;16801;53.562;10.038;2023-11-19T06:38:17;17.70;;;8.30;;
29940;SDS011;16801;53.562;10.038;2023-11-19T06:41:40;9.70;;;7.73;;
29940;SDS011;16801;53.562;10.038;2023-11-19T06:45:06;14.03;;;7.70;;
29940;SDS011;16801;53.562;10.038;2023-11-19T06:48:27;11.73;;;7.20;;
29940;SDS011;16801;53.562;10.038;2023-11-19T06:51:48;17.30;;;7.83;;
29940;SDS011;16801;53.562;10.038;2023-11-19T06:55:09;12.40;;;7.30;;
29940;SDS011;16801;53.562;10.038;2023-11-19T06:58:32;11.87;;;7.37;;
29940;SDS011;16801;53.562;10.038;2023-11-19T07:01:56;12.57;;;7.63;;
29940;SDS011;16801;53.562;10.038;2023-11-19T07:05:17;14.57;;;7.63;;
29940;SDS011;16801;53.562;10.038;2023-11-19T07:08:38;12.40;;;6.77;;
29940;SDS011;16801;53.562;10.038;2023-11-19T07:11:59;14.07;;;6.70;;
29940;SDS011;16801;53.562;10.038;2023-11-19T07:15:22;14.07;;;7.50;;
29940;SDS011;16801;53.562;10.038;2023-11-19T07:18:43;15.33;;;6.13;;
29940;SDS011;16801;53.562;10.038;2023-11-19T07:22:04;11.60;;;6.07;;
29940;SDS011;16801;53.562;10.038;2023-11-19T07:25:26;12.87;;;5.17;;
29940;SDS011;16801;53.562;10.038;2023-11-19T07:28:47;14.77;;;6.73;;
29940;SDS011;16801;53.562;10.038;2023-11-19T07:32:09;13.90;;;5.23;;
29940;SDS011;16801;53.562;10.038;2023-11-19T07:35:31;8.27;;;4.40;;
29940;SDS011;16801;53.562;10.038;2023-11-19T07:38:52;8.20;;;4.60;;
29940;SDS011;16801;53.562;10.038;2023-11-19T07:42:15;8.97;;;5.40;;
29940;SDS011;16801;53.562;10.038;2023-11-19T07:45:36;8.83;;;4.60;;
29940;SDS011;16801;53.562;10.038;2023-11-19T07:48:59;5.97;;;4.40;;
29940;SDS011;16801;53.562;10.038;2023-11-19T07:52:22;11.40;;;4.90;;
29940;SDS011;16801;53.562;10.038;2023-11-19T07:55:43;30.20;;;7.50;;
29940;SDS011;16801;53.562;10.038;2023-11-19T07:59:04;11.57;;;4.93;;
29940;SDS011;16801;53.562;10.038;2023-11-19T08:02:28;10.80;;;5.13;;
29940;SDS011;16801;53.562;10.038;2023-11-19T08:05:51;19.00;;;6.10;;
29940;SDS011;16801;53.562;10.038;2023-11-19T08:09:14;14.80;;;5.33;;
29940;SDS011;16801;53.562;10.038;2023-11-19T08:12:35;14.13;;;5.60;;
29940;SDS011;16801;53.562;10.038;2023-11-19T08:15:56;10.00;;;4.87;;
29940;SDS011;16801;53.562;10.038;2023-11-19T08:19:17;13.57;;;5.60;;
29940;SDS011;16801;53.562;10.038;2023-11-19T08:22:40;16.90;;;5.73;;
29940;SDS011;16801;53.562;10.038;2023-11-19T08:26:01;15.93;;;6.73;;
29940;SDS011;16801;53.562;10.038;2023-11-19T08:29:22;15.27;;;6.50;;
29940;SDS011;16801;53.562;10.038;2023-11-19T08:32:43;8.77;;;4.40;;
29940;SDS011;16801;53.562;10.038;2023-11-19T08:36:04;10.07;;;5.00;;
29940;SDS011;16801;53.562;10.038;2023-11-19T08:39:27;12.50;;;5.30;;
29940;SDS011;16801;53.562;10.038;2023-11-19T08:42:48;23.37;;;5.60;;
29940;SDS011;16801;53.562;10.038;2023-11-19T08:46:09;11.13;;;5.20;;
29940;SDS011;16801;53.562;10.038;2023-11-19T08:49:31;12.47;;;5.63;;
29940;SDS011;16801;53.562;10.038;2023-11-19T08:52:51;15.70;;;5.63;;
29940;SDS011;16801;53.562;10.038;2023-11-19T08:56:14;12.83;;;6.80;;
29940;SDS011;16801;53.562;10.038;2023-11-19T08:59:37;19.97;;;6.47;;
29940;SDS011;16801;53.562;10.038;2023-11-19T09:02:59;15.47;;;6.40;;
29940;SDS011;16801;53.562;10.038;2023-11-19T09:06:20;19.80;;;6.73;;
29940;SDS011;16801;53.562;10.038;2023-11-19T09:09:41;12.27;;;6.67;;
29940;SDS011;16801;53.562;10.038;2023-11-19T09:13:03;10.20;;;5.00;;
29940;SDS011;16801;53.562;10.038;2023-11-19T09:16:23;16.87;;;7.53;;
29940;SDS011;16801;53.562;10.038;2023-11-19T09:19:44;16.23;;;5.80;;
29940;SDS011;16801;53.562;10.038;2023-11-19T09:23:05;16.83;;;5.43;;
29940;SDS011;16801;53.562;10.038;2023-11-19T09:26:28;15.17;;;6.30;;
29940;SDS011;16801;53.562;10.038;2023-11-19T09:29:51;12.00;;;5.27;;
29940;SDS011;16801;53.562;10.038;2023-11-19T09:33:17;22.00;;;6.73;;
29940;SDS011;16801;53.562;10.038;2023-11-19T09:36:37;16.70;;;6.83;;
29940;SDS011;16801;53.562;10.038;2023-11-19T09:39:58;10.77;;;6.10;;
29940;SDS011;16801;53.562;10.038;2023-11-19T09:43:20;14.27;;;6.03;;
29940;SDS011;16801;53.562;10.038;2023-11-19T09:46:42;26.10;;;7.73;;
29940;SDS011;16801;53.562;10.038;2023-11-19T09:50:04;10.67;;;4.57;;
29940;SDS011;16801;53.562;10.038;2023-11-19T09:53:25;20.27;;;5.80;;
29940;SDS011;16801;53.562;10.038;2023-11-19T09:56:46;17.07;;;7.03;;
29940;SDS011;16801;53.562;10.038;2023-11-19T10:00:09;11.27;;;6.37;;
29940;SDS011;16801;53.562;10.038;2023-11-19T10:03:33;19.37;;;7.00;;
29940;SDS011;16801;53.562;10.038;2023-11-19T10:06:59;13.77;;;6.13;;
29940;SDS011;16801;53.562;10.038;2023-11-19T10:10:20;12.90;;;5.03;;
29940;SDS011;16801;53.562;10.038;2023-11-19T10:13:42;14.13;;;4.90;;
29940;SDS011;16801;53.562;10.038;2023-11-19T10:17:04;15.80;;;5.90;;
29940;SDS011;16801;53.562;10.038;2023-11-19T10:20:32;19.30;;;6.73;;
29940;SDS011;16801;53.562;10.038;2023-11-19T10:23:56;12.83;;;4.77;;
29940;SDS011;16801;53.562;10.038;2023-11-19T10:27:19;14.63;;;6.90;;
29940;SDS011;16801;53.562;10.038;2023-11-19T10:30:40;15.93;;;5.37;;
29940;SDS011;16801;53.562;10.038;2023-11-19T10:34:02;19.73;;;6.47;;
29940;SDS011;16801;53.562;10.038;2023-11-19T10:37:30;13.73;;;7.03;;
29940;SDS011;16801;53.562;10.038;2023-11-19T10:40:52;11.37;;;5.23;;
29940;SDS011;16801;53.562;10.038;2023-11-19T10:44:28;17.20;;;6.90;;
29940;SDS011;16801;53.562;10.038;2023-11-19T10:47:53;19.00;;;8.80;;
29940;SDS011;16801;53.562;10.038;2023-11-19T10:51:18;17.30;;;7.03;;
29940;SDS011;16801;53.562;10.038;2023-11-19T10:54:42;12.90;;;5.97;;
29940;SDS011;16801;53.562;10.038;2023-11-19T10:58:05;23.83;;;6.23;;
29940;SDS011;16801;53.562;10.038;2023-11-19T11:01:27;9.73;;;5.60;;
29940;SDS011;16801;53.562;10.038;2023-11-19T11:05:05;13.73;;;7.23;;
29940;SDS011;16801;53.562;10.038;2023-11-19T11:08:27;21.73;;;7.10;;
29940;SDS011;16801;53.562;10.038;2023-11-19T11:11:53;22.43;;;7.30;;
29940;SDS011;16801;53.562;10.038;2023-11-19T11:15:16;13.97;;;5.57;;
29940;SDS011;16801;53.562;10.038;2023-11-19T11:18:39;19.33;;;7.90;;
29940;SDS011;16801;53.562;10.038;2023-11-19T11:22:01;16.97;;;8.37;;
29940;SDS011;16801;53.562;10.038;2023-11-19T11:25:28;10.50;;;5.43;;
29940;SDS011;16801;53.562;10.038;2023-11-19T11:28:59;15.63;;;5.87;;
29940;SDS011;16801;53.562;10.038;2023-11-19T11:32:25;19.30;;;6.17;;
29940;SDS011;16801;53.562;10.038;2023-11-19T11:35:55;10.50;;;6.20;;
29940;SDS011;16801;53.562;10.038;2023-11-19T11:39:31;11.97;;;4.80;;
29940;SDS011;16801;53.562;10.038;2023-11-19T11:42:53;13.67;;;7.37;;
29940;SDS011;16801;53.562;10.038;2023-11-19T11:50:12;38.83;;;8.13;;
29940;SDS011;16801;53.562;10.038;2023-11-19T11:53:37;14.03;;;4.77;;
29940;SDS011;16801;53.562;10.038;2023-11-19T12:00:38;20.60;;;7.37;;
29940;SDS011;16801;53.562;10.038;2023-11-19T12:04:01;14.00;;;5.47;;
29940;SDS011;16801;53.562;10.038;2023-11-19T12:07:24;12.13;;;4.80;;
29940;SDS011;16801;53.562;10.038;2023-11-19T12:10:45;13.00;;;6.10;;
29940;SDS011;16801;53.562;10.038;2023-11-19T12:14:08;13.77;;;5.23;;
29940;SDS011;16801;53.562;10.038;2023-11-19T12:17:41;20.43;;;5.67;;
29940;SDS011;16801;53.562;10.038;2023-11-19T12:21:08;21.13;;;6.10;;
29940;SDS011;16801;53.562;10.038;2023-11-19T12:24:34;12.23;;;5.47;;
29940;SDS011;16801;53.562;10.038;2023-11-19T12:27:54;17.60;;;5.73;;
29940;SDS011;16801;53.562;10.038;2023-11-19T12:31:15;16.53;;;5.80;;
29940;SDS011;16801;53.562;10.038;2023-11-19T12:34:37;14.20;;;4.10;;
29940;SDS011;16801;53.562;10.038;2023-11-19T12:37:58;11.20;;;5.40;;
29940;SDS011;16801;53.562;10.038;2023-11-19T12:41:20;15.67;;;6.77;;
29940;SDS011;16801;53.562;10.038;2023-11-19T12:44:53;15.63;;;5.30;;
29940;SDS011;16801;53.562;10.038;2023-11-19T12:48:15;19.77;;;6.93;;
29940;SDS011;16801;53.562;10.038;2023-11-19T12:51:36;13.60;;;5.03;;
29940;SDS011;16801;53.562;10.038;2023-11-19T12:54:57;11.00;;;6.43;;
29940;SDS011;16801;53.562;10.038;2023-11-19T12:58:29;9.77;;;5.20;;
29940;SDS011;16801;53.562;10.038;2023-11-19T13:01:54;11.17;;;4.70;;
29940;SDS011;16801;53.562;10.038;2023-11-19T13:05:22;12.97;;;6.43;;
29940;SDS011;16801;53.562;10.038;2023-11-19T13:08:46;13.87;;;5.87;;
29940;SDS011;16801;53.562;10.038;2023-11-19T13:12:13;15.57;;;5.30;;
29940;SDS011;16801;53.562;10.038;2023-11-19T13:15:36;12.50;;;4.90;;
29940;SDS011;16801;53.562;10.038;2023-11-19T13:18:57;12.20;;;6.50;;
29940;SDS011;16801;53.562;10.038;2023-11-19T13:22:19;19.40;;;6.13;;
29940;SDS011;16801;53.562;10.038;2023-11-19T13:25:40;15.60;;;5.73;;
29940;SDS011;16801;53.562;10.038;2023-11-19T13:29:01;15.97;;;5.93;;
29940;SDS011;16801;53.562;10.038;2023-11-19T13:32:23;25.50;;;5.97;;
29940;SDS011;16801;53.562;10.038;2023-11-19T13:35:44;17.70;;;5.53;;
29940;SDS011;16801;53.562;10.038;2023-11-19T13:39:10;15.33;;;4.93;;
29940;SDS011;16801;53.562;10.038;2023-11-19T13:42:31;12.23;;;4.53;;
29940;SDS011;16801;53.562;10.038;2023-11-19T13:45:52;18.27;;;6.10;;
29940;SDS011;16801;53.562;10.038;2023-11-19T13:49:15;12.77;;;4.70;;
29940;SDS011;16801;53.562;10.038;2023-11-19T13:52:36;17.17;;;5.60;;
29940;SDS011;16801;53.562;10.038;2023-11-19T13:55:58;14.23;;;5.33;;
29940;SDS011;16801;53.562;10.038;2023-11-19T13:59:19;33.03;;;7.37;;
29940;SDS011;16801;53.562;10.038;2023-11-19T14:02:40;19.17;;;6.67;;
29940;SDS011;16801;53.562;10.038;2023-11-19T14:06:03;20.07;;;6.40;;
29940;SDS011;16801;53.562;10.038;2023-11-19T14:09:25;13.00;;;6.03;;
29940;SDS011;16801;53.562;10.038;2023-11-19T14:12:46;9.83;;;5.00;;
29940;SDS011;16801;53.562;10.038;2023-11-19T14:16:07;13.23;;;6.67;;
29940;SDS011;16801;53.562;10.038;2023-11-19T14:19:28;15.87;;;5.30;;
29940;SDS011;16801;53.562;10.038;2023-11-19T14:22:50;10.07;;;4.03;;
29940;SDS011;16801;53.562;10.038;2023-11-19T14:26:12;19.20;;;5.73;;
29940;SDS011;16801;53.562;10.038;2023-11-19T14:29:32;14.27;;;6.20;;
29940;SDS011;16801;53.562;10.038;2023-11-19T14:32:54;11.33;;;4.10;;
29940;SDS011;16801;53.562;10.038;2023-11-19T14:36:15;11.73;;;6.60;;
29940;SDS011;16801;53.562;10.038;2023-11-19T14:39:37;12.43;;;6.10;;
29940;SDS011;16801;53.562;10.038;2023-11-19T14:42:58;12.70;;;6.17;;
29940;SDS011;16801;53.562;10.038;2023-11-19T14:46:18;13.63;;;5.93;;
29940;SDS011;16801;53.562;10.038;2023-11-19T14:49:39;11.27;;;4.40;;
29940;SDS011;16801;53.562;10.038;2023-11-19T14:53:00;17.13;;;4.40;;
29940;SDS011;16801;53.562;10.038;2023-11-19T14:56:22;13.83;;;5.57;;
29940;SDS011;16801;53.562;10.038;2023-11-19T14:59:43;11.77;;;5.33;;
29940;SDS011;16801;53.562;10.038;2023-11-19T15:03:05;9.90;;;5.20;;
29940;SDS011;16801;53.562;10.038;2023-11-19T15:06:28;11.83;;;5.00;;
29940;SDS011;16801;53.562;10.038;2023-11-19T15:09:50;12.07;;;3.80;;
29940;SDS011;16801;53.562;10.038;2023-11-19T15:13:14;6.83;;;3.20;;
29940;SDS011;16801;53.562;10.038;2023-11-19T15:16:35;5.73;;;1.90;;
29940;SDS011;16801;53.562;10.038;2023-11-19T15:19:56;3.13;;;2.77;;
29940;SDS011;16801;53.562;10.038;2023-11-19T15:23:18;1.80;;;0.87;;
29940;SDS011;16801;53.562;10.038;2023-11-19T15:26:39;1.90;;;1.40;;
29940;SDS011;16801;53.562;10.038;2023-11-19T15:30:01;2.10;;;1.90;;
29940;SDS011;16801;53.562;10.038;2023-11-19T15:33:24;4.07;;;2.20;;
29940;SDS011;16801;53.562;10.038;2023-11-19T15:36:44;4.27;;;1.87;;
29940;SDS011;16801;53.562;10.038;2023-11-19T15:40:06;2.47;;;1.00;;
29940;SDS011;16801;53.562;10.038;2023-11-19T15:43:29;1.97;;;1.23;;
29940;SDS011;16801;53.562;10.038;2023-11-19T15:46:51;4.90;;;2.10;;
29940;SDS011;16801;53.562;10.038;2023-11-19T15:50:13;2.70;;;2.17;;
29940;SDS011;16801;53.562;10.038;2023-11-19T15:53:34;10.47;;;3.03;;
29940;SDS011;16801;53.562;10.038;2023-11-19T15:56:55;16.87;;;5.40;;
29940;SDS011;16801;53.562;10.038;2023-11-19T16:00:16;9.57;;;4.63;;
29940;SDS011;16801;53.562;10.038;2023-11-19T16:03:41;13.90;;;4.83;;
29940;SDS011;16801;53.562;10.038;2023-11-19T16:07:02;14.67;;;6.07;;
29940;SDS011;16801;53.562;10.038;2023-11-19T16:10:25;10.53;;;5.03;;
29940;SDS011;16801;53.562;10.038;2023-11-19T16:13:49;8.93;;;4.50;;
29940;SDS011;16801;53.562;10.038;2023-11-19T16:17:10;11.73;;;4.97;;
29940;SDS011;16801;53.562;10.038;2023-11-19T16:20:33;14.40;;;6.83;;
29940;SDS011;16801;53.562;10.038;2023-11-19T16:23:55;8.17;;;4.70;;
29940;SDS011;16801;53.562;10.038;2023-11-19T16:27:16;10.27;;;4.73;;
29940;SDS011;16801;53.562;10.038;2023-11-19T16:30:37;14.87;;;4.53;;
29940;SDS011;16801;53.562;10.038;2023-11-19T16:33:58;11.50;;;5.40;;
29940;SDS011;16801;53.562;10.038;2023-11-19T16:37:21;6.80;;;3.90;;
29940;SDS011;16801;53.562;10.038;2023-11-19T16:40:42;8.60;;;5.17;;
29940;SDS011;16801;53.562;10.038;2023-11-19T16:44:03;7.50;;;4.13;;
29940;SDS011;16801;53.562;10.038;2023-11-19T16:47:25;7.50;;;3.80;;
29940;SDS011;16801;53.562;10.038;2023-11-19T16:50:46;14.37;;;5.33;;
29940;SDS011;16801;53.562;10.038;2023-11-19T16:54:10;6.93;;;3.80;;
29940;SDS011;16801;53.562;10.038;2023-11-19T16:57:31;11.03;;;4.10;;
29940;SDS011;16801;53.562;10.038;2023-11-19T17:00:53;9.27;;;4.00;;
29940;SDS011;16801;53.562;10.038;2023-11-19T17:04:14;11.03;;;4.57;;
29940;SDS011;16801;53.562;10.038;2023-11-19T17:07:36;8.87;;;3.27;;
29940;SDS011;16801;53.562;10.038;2023-11-19T17:11:00;8.00;;;4.50;;
29940;SDS011;16801;53.562;10.038;2023-11-19T17:14:21;7.93;;;3.43;;
29940;SDS011;16801;53.562;10.038;2023-11-19T17:17:42;6.83;;;3.50;;
29940;SDS011;16801;53.562;10.038;2023-11-19T17:21:03;3.37;;;2.37;;
29940;SDS011;16801;53.562;10.038;2023-11-19T17:24:24;11.23;;;3.57;;
29940;SDS011;16801;53.562;10.038;2023-11-19T17:27:46;5.10;;;2.90;;
29940;SDS011;16801;53.562;10.038;2023-11-19T17:31:07;6.90;;;3.27;;
29940;SDS011;16801;53.562;10.038;2023-11-19T17:34:28;6.43;;;3.00;;
29940;SDS011;16801;53.562;10.038;2023-11-19T17:37:50;4.87;;;2.83;;
29940;SDS011;16801;53.562;10.038;2023-11-19T17:41:11;4.40;;;2.93;;
29940;SDS011;16801;53.562;10.038;2023-11-19T17:44:33;8.63;;;3.83;;
29940;SDS011;16801;53.562;10.038;2023-11-19T17:47:54;6.20;;;3.23;;
29940;SDS011;16801;53.562;10.038;2023-11-19T17:51:15;3.13;;;2.03;;
29940;SDS011;16801;53.562;10.038;2023-11-19T17:54:38;7.53;;;2.37;;
29940;SDS011;16801;53.562;10.038;2023-11-19T17:57:59;3.70;;;2.33;;
29940;SDS011;16801;53.562;10.038;2023-11-19T18:01:21;3.97;;;3.10;;
29940;SDS011;16801;53.562;10.038;2023-11-19T18:04:44;5.23;;;2.73;;
29940;SDS011;16801;53.562;10.038;2023-11-19T18:08:06;5.20;;;2.40;;
29940;SDS011;16801;53.562;10.038;2023-11-19T18:11:27;7.67;;;3.73;;
29940;SDS011;16801;53.562;10.038;2023-11-19T18:14:48;5.70;;;3.63;;
29940;SDS011;16801;53.562;10.038;2023-11-19T18:18:12;10.23;;;3.17;;
29940;SDS011;16801;53.562;10.038;2023-11-19T18:21:33;4.60;;;3.13;;
29940;SDS011;16801;53.562;10.038;2023-11-19T18:24:54;6.37;;;3.63;;
29940;SDS011;16801;53.562;10.038;2023-11-19T18:28:15;4.40;;;3.27;;
29940;SDS011;16801;53.562;10.038;2023-11-19T18:31:37;5.30;;;3.47;;
29940;SDS011;16801;53.562;10.038;2023-11-19T18:34:59;7.13;;;3.50;;
29940;SDS011;16801;53.562;10.038;2023-11-19T18:38:20;9.80;;;3.93;;
29940;SDS011;16801;53.562;10.038;2023-11-19T18:41:42;4.17;;;2.60;;
29940;SDS011;16801;53.562;10.038;2023-11-19T18:45:03;4.97;;;3.07;;
29940;SDS011;16801;53.562;10.038;2023-11-19T18:48:24;7.97;;;4.17;;
29940;SDS011;16801;53.562;10.038;2023-11-19T18:51:46;7.13;;;4.40;;
29940;SDS011;16801;53.562;10.038;2023-11-19T18:55:07;7.17;;;4.30;;
29940;SDS011;16801;53.562;10.038;2023-11-19T18:58:28;17.30;;;5.87;;
29940;SDS011;16801;53.562;10.038;2023-11-19T19:01:49;13.87;;;5.33;;
29940;SDS011;16801;53.562;10.038;2023-11-19T19:05:10;15.77;;;5.07;;
29940;SDS011;16801;53.562;10.038;2023-11-19T19:08:36;11.40;;;5.67;;
29940;SDS011;16801;53.562;10.038;2023-11-19T19:11:59;11.23;;;5.33;;
29940;SDS011;16801;53.562;10.038;2023-11-19T19:15:20;15.33;;;5.43;;
29940;SDS011;16801;53.562;10.038;2023-11-19T19:18:41;8.87;;;4.40;;
29940;SDS011;16801;53.562;10.038;2023-11-19T19:22:02;14.87;;;4.43;;
29940;SDS011;16801;53.562;10.038;2023-11-19T19:25:24;11.13;;;4.70;;
29940;SDS011;16801;53.562;10.038;2023-11-19T19:28:47;11.97;;;5.37;;
29940;SDS011;16801;53.562;10.038;2023-11-19T19:32:08;10.07;;;5.27;;
29940;SDS011;16801;53.562;10.038;2023-11-19T19:35:30;6.20;;;3.87;;
29940;SDS011;16801;53.562;10.038;2023-11-19T19:38:51;9.10;;;5.13;;
29940;SDS011;16801;53.562;10.038;2023-11-19T19:42:13;13.10;;;5.17;;
29940;SDS011;16801;53.562;10.038;2023-11-19T19:45:35;9.97;;;5.33;;
29940;SDS011;16801;53.562;10.038;2023-11-19T19:48:59;8.07;;;4.50;;
29940;SDS011;16801;53.562;10.038;2023-11-19T19:52:20;7.40;;;4.30;;
29940;SDS011;16801;53.562;10.038;2023-11-19T19:55:41;16.47;;;5.10;;
29940;SDS011;16801;53.562;10.038;2023-11-19T19:59:03;9.03;;;4.73;;